Berclair, Mississippi
Current Conditions -  °F | °C
As of 6:53 PM on Tuesday 27 Jan 2015 (Local Time) from KGWO Reporting Station
Clear Clear  
Wind Chill: 45°   Ceiling: Unl
Heat Index: 48°   Visibility: 10mi
Dew Point: 36°   Wind: 6mph
Humidity: 63%   Direction: 350°N
Pressure: 30.16"   Gusts: NA
Location:  33.4064°N, 90.3812°W
Report Text: KGWO 280053Z AUTO 35005KT 10SM CLR 09/02 A3016 RMK AO2 SLP215 T00890022
Loading
Personal Weather Stations






























Interactive Weather Map New forecast layout! Learn more

10-Day Weather Forecast

Advertisements
Track Severe Weather on mobile